createdAt,value
2019-05-20T00:01:27.836Z,99027.81
2019-05-20T00:03:56.263Z,99031.30
2019-05-20T00:06:24.690Z,99036.97
2019-05-20T00:08:53.146Z,99030.72
2019-05-20T00:11:21.580Z,99021.83
2019-05-20T00:13:50.052Z,99020.07
2019-05-20T00:16:18.509Z,99020.97
2019-05-20T00:18:47.078Z,99023.23
2019-05-20T00:21:15.605Z,99021.52
2019-05-20T00:23:44.074Z,99015.13
2019-05-20T00:26:12.507Z,99012.84
2019-05-20T00:28:40.936Z,99009.70
2019-05-20T00:31:09.516Z,99006.30
2019-05-20T00:33:37.951Z,99005.09
2019-05-20T00:36:06.406Z,99008.34
2019-05-20T00:38:34.907Z,99016.84
2019-05-20T00:41:03.406Z,99020.23
2019-05-20T00:43:31.880Z,99028.56
2019-05-20T00:46:00.433Z,99028.20
2019-05-20T00:48:28.862Z,99029.00
2019-05-20T00:50:57.359Z,99029.11
2019-05-20T00:53:25.889Z,99021.45
2019-05-20T00:55:54.456Z,99013.47
2019-05-20T00:58:22.907Z,99017.28
2019-05-20T01:00:51.369Z,99014.83
2019-05-20T01:03:19.869Z,99016.69
2019-05-20T01:05:48.308Z,99020.98
2019-05-20T01:08:16.826Z,99016.42
2019-05-20T01:10:45.276Z,99012.36
2019-05-20T01:13:13.952Z,99005.84
2019-05-20T01:15:42.502Z,99002.74
2019-05-20T01:18:10.999Z,99005.09
2019-05-20T01:20:39.436Z,99010.69
2019-05-20T01:23:07.970Z,99018.94
2019-05-20T01:25:36.402Z,99013.98
2019-05-20T01:28:04.968Z,99010.80
2019-05-20T01:30:33.426Z,99011.94
2019-05-20T01:33:13.224Z,99012.90
2019-05-20T01:35:32.082Z,99010.98
2019-05-20T01:38:00.574Z,99009.16
2019-05-20T01:40:29.001Z,99008.58
2019-05-20T01:42:57.465Z,99005.36
2019-05-20T01:45:26.057Z,99010.63
2019-05-20T01:47:54.490Z,99000.83
2019-05-20T01:50:22.921Z,99003.32
2019-05-20T01:52:51.528Z,99001.98
2019-05-20T01:55:20.141Z,98999.11
2019-05-20T01:57:48.608Z,98998.73
2019-05-20T02:00:17.310Z,98998.91
2019-05-20T02:02:45.734Z,98996.44
2019-05-20T02:05:14.297Z,98989.35
2019-05-20T02:07:42.763Z,98990.28
2019-05-20T02:10:11.637Z,98988.12
2019-05-20T02:12:40.305Z,98993.19
2019-05-20T02:15:29.310Z,98994.15
2019-05-20T02:17:57.818Z,99002.09
2019-05-20T02:20:26.331Z,98992.81
2019-05-20T02:22:56.504Z,99003.16
2019-05-20T02:25:25.039Z,99004.29
2019-05-20T02:27:53.539Z,98996.34
2019-05-20T02:30:22.147Z,98993.32
2019-05-20T02:32:50.577Z,98989.95
2019-05-20T02:35:19.096Z,98988.94
2019-05-20T02:37:47.716Z,98993.72
2019-05-20T02:40:16.608Z,98998.91
2019-05-20T02:42:45.036Z,98997.20
2019-05-20T02:45:13.855Z,98999.95
2019-05-20T02:47:42.291Z,98994.76
2019-05-20T02:50:11.162Z,98994.92
2019-05-20T02:52:39.623Z,98998.88
2019-05-20T02:55:08.548Z,99004.34
2019-05-20T02:57:37.002Z,98998.34
2019-05-20T03:00:08.937Z,98997.70
2019-05-20T03:02:37.381Z,98997.13
2019-05-20T03:05:06.945Z,99001.52
2019-05-20T03:07:35.520Z,99002.20
2019-05-20T03:10:05.674Z,99005.39
2019-05-20T03:12:34.247Z,99001.24
2019-05-20T03:15:03.058Z,99005.94
2019-05-20T03:17:31.488Z,99002.31
2019-05-20T03:19:59.915Z,98996.11
2019-05-20T03:22:28.484Z,98994.22
2019-05-20T03:24:56.979Z,99007.12
2019-05-20T03:27:26.929Z,98998.88
2019-05-20T03:29:55.512Z,99004.53
2019-05-20T03:32:23.945Z,99014.19
2019-05-20T03:34:59.444Z,99013.89
2019-05-20T03:37:22.733Z,99019.03
2019-05-20T03:39:51.214Z,99019.42
2019-05-20T03:42:19.624Z,99030.11
2019-05-20T03:44:48.273Z,99024.22
2019-05-20T03:47:16.732Z,99025.07
2019-05-20T03:49:45.227Z,99028.02
2019-05-20T03:52:13.909Z,99024.03
2019-05-20T03:54:42.345Z,99022.02
2019-05-20T03:57:10.795Z,99030.78
2019-05-20T03:59:39.332Z,99029.75
2019-05-20T04:02:07.840Z,99020.77
2019-05-20T04:04:36.292Z,99021.62
2019-05-20T04:07:04.899Z,99022.96
2019-05-20T04:09:33.333Z,99037.45
2019-05-20T04:12:01.773Z,99033.45
2019-05-20T04:14:30.321Z,99030.41
2019-05-20T04:16:58.777Z,99030.68
2019-05-20T04:19:27.203Z,99035.17
2019-05-20T04:21:55.784Z,99035.16
2019-05-20T04:24:24.277Z,99035.72
2019-05-20T04:26:58.469Z,99036.86
2019-05-20T04:29:26.987Z,99037.61
2019-05-20T04:31:56.248Z,99038.95
2019-05-20T04:34:24.959Z,99029.14
2019-05-20T04:36:53.501Z,99029.83
2019-05-20T04:39:21.999Z,99026.16
2019-05-20T04:41:50.562Z,99021.72
2019-05-20T04:44:19.300Z,99027.60
2019-05-20T04:46:47.805Z,99034.97
2019-05-20T04:49:16.232Z,99036.20
2019-05-20T04:51:44.686Z,99041.72
2019-05-20T04:54:13.455Z,99042.89
2019-05-20T04:56:41.937Z,99049.58
2019-05-20T04:59:10.369Z,99056.22
2019-05-20T05:01:38.944Z,99060.03
2019-05-20T05:04:07.645Z,99056.45
2019-05-20T05:06:36.955Z,99062.13
2019-05-20T05:09:07.402Z,99060.45
2019-05-20T05:11:36.266Z,99060.78
2019-05-20T05:14:05.073Z,99054.86
2019-05-20T05:16:33.577Z,99062.43
2019-05-20T05:19:02.081Z,99058.52
2019-05-20T05:21:30.721Z,99064.16
2019-05-20T05:23:59.699Z,99066.22
2019-05-20T05:26:28.314Z,99071.84
2019-05-20T05:28:56.923Z,99071.78
2019-05-20T05:31:25.433Z,99077.14
2019-05-20T05:33:54.510Z,99070.29
2019-05-20T05:36:23.323Z,99075.27
2019-05-20T05:38:51.863Z,99071.76
2019-05-20T05:41:20.442Z,99073.95
2019-05-20T05:43:49.082Z,99069.41
2019-05-20T05:46:17.580Z,99075.95
2019-05-20T05:48:46.018Z,99075.59
2019-05-20T05:51:14.726Z,99072.63
2019-05-20T05:53:43.242Z,99066.36
2019-05-20T05:56:11.666Z,99067.56
2019-05-20T05:58:40.165Z,99064.88
2019-05-20T06:01:08.776Z,99060.67
2019-05-20T06:03:37.273Z,99069.65
2019-05-20T06:06:12.388Z,99067.45
2019-05-20T06:08:36.017Z,99062.61
2019-05-20T06:11:04.457Z,99071.63
2019-05-20T06:13:32.941Z,99067.73
2019-05-20T06:16:01.400Z,99073.73
2019-05-20T06:18:29.929Z,99069.42
2019-05-20T06:20:58.413Z,99071.87
2019-05-20T06:23:26.912Z,99067.81
2019-05-20T06:25:55.346Z,99078.96
2019-05-20T06:28:23.909Z,99076.05
2019-05-20T06:30:52.585Z,99075.08
2019-05-20T06:33:21.016Z,99089.30
2019-05-20T06:35:49.813Z,99083.79
2019-05-20T06:38:20.325Z,99089.56
2019-05-20T06:40:48.805Z,99091.27
2019-05-20T06:43:17.414Z,99098.92
2019-05-20T06:45:45.924Z,99101.22
2019-05-20T06:48:14.378Z,99106.21
2019-05-20T06:50:42.993Z,99108.80
2019-05-20T06:53:11.420Z,99103.32
2019-05-20T06:55:39.855Z,99109.28
2019-05-20T06:58:08.433Z,99104.63
2019-05-20T07:00:38.938Z,99108.59
2019-05-20T07:03:08.120Z,99100.35
2019-05-20T07:05:36.665Z,99110.53
2019-05-20T07:08:05.331Z,99108.03
2019-05-20T07:10:33.902Z,99113.66
2019-05-20T07:13:02.526Z,99108.14
2019-05-20T07:15:31.171Z,99115.74
2019-05-20T07:17:59.632Z,99115.63
2019-05-20T07:20:28.144Z,99109.41
2019-05-20T07:22:57.232Z,99106.30
2019-05-20T07:25:25.890Z,99118.45
2019-05-20T07:27:54.409Z,99120.87
2019-05-20T07:30:22.911Z,99113.77
2019-05-20T07:32:51.543Z,99106.72
2019-05-20T07:35:30.321Z,99109.52
2019-05-20T07:37:50.364Z,99117.55
2019-05-20T07:40:30.381Z,99117.77
2019-05-20T07:42:59.067Z,99116.33
2019-05-20T07:45:29.858Z,99120.58
2019-05-20T07:47:58.850Z,99129.28
2019-05-20T07:50:28.121Z,99116.22
2019-05-20T07:53:00.338Z,99117.42
2019-05-20T07:55:30.456Z,99118.87
2019-05-20T07:58:01.976Z,99112.46
2019-05-20T08:00:30.611Z,99124.00
2019-05-20T08:02:59.216Z,99117.56
2019-05-20T08:05:27.717Z,99121.62
2019-05-20T08:07:56.255Z,99120.77
2019-05-20T08:10:24.861Z,99123.70
2019-05-20T08:12:53.451Z,99117.36
2019-05-20T08:15:22.054Z,99125.25
2019-05-20T08:17:50.590Z,99122.55
2019-05-20T08:20:19.160Z,99116.00
2019-05-20T08:22:47.732Z,99116.07
2019-05-20T08:25:17.023Z,99127.45
2019-05-20T08:27:45.532Z,99121.58
2019-05-20T08:30:15.611Z,99132.28
2019-05-20T08:32:44.076Z,99132.05
2019-05-20T08:35:13.054Z,99131.80
2019-05-20T08:37:45.751Z,99131.75
2019-05-20T08:40:11.958Z,99142.83
2019-05-20T08:42:40.366Z,99146.09
2019-05-20T08:45:09.253Z,99145.98
2019-05-20T08:47:37.695Z,99159.50
2019-05-20T08:50:10.974Z,99167.33
2019-05-20T08:52:37.293Z,99168.92
2019-05-20T08:55:07.001Z,99176.41
2019-05-20T08:57:35.502Z,99166.47
2019-05-20T09:00:05.388Z,99170.45
2019-05-20T09:02:33.826Z,99170.34
2019-05-20T09:05:02.291Z,99167.33
2019-05-20T09:07:30.682Z,99165.64
2019-05-20T09:09:59.149Z,99158.83
2019-05-20T09:12:27.607Z,99159.23
2019-05-20T09:14:56.021Z,99158.81
2019-05-20T09:17:24.471Z,99158.52
2019-05-20T09:19:53.080Z,99158.98
2019-05-20T09:22:21.570Z,99159.80
2019-05-20T09:24:50.386Z,99160.74
2019-05-20T09:27:19.074Z,99158.81
2019-05-20T09:29:47.576Z,99158.58
2019-05-20T09:32:16.274Z,99171.73
2019-05-20T09:34:45.209Z,99162.80
2019-05-20T09:37:13.778Z,99159.92
2019-05-20T09:39:42.227Z,99157.66
2019-05-20T09:42:10.669Z,99158.58
2019-05-20T09:44:39.123Z,99156.19
2019-05-20T09:47:07.711Z,99161.17
2019-05-20T09:49:36.180Z,99153.06
2019-05-20T09:52:04.657Z,99158.44
2019-05-20T09:54:33.198Z,99158.61
2019-05-20T09:57:01.609Z,99161.82
2019-05-20T09:59:42.552Z,99160.62
2019-05-20T10:02:00.516Z,99156.95
2019-05-20T10:04:28.954Z,99156.58
2019-05-20T10:06:57.395Z,99150.22
2019-05-20T10:09:26.040Z,99162.44
2019-05-20T10:11:55.141Z,99162.08
2019-05-20T10:14:23.644Z,99165.52
2019-05-20T10:16:52.241Z,99162.34
2019-05-20T10:19:20.690Z,99169.16
2019-05-20T10:21:49.101Z,99170.11
2019-05-20T10:24:17.563Z,99170.83
2019-05-20T10:26:46.065Z,99167.94
2019-05-20T10:29:14.588Z,99173.63
2019-05-20T10:31:43.326Z,99168.26
2019-05-20T10:34:11.750Z,99166.09
2019-05-20T10:36:40.166Z,99162.44
2019-05-20T10:39:08.894Z,99170.87
2019-05-20T10:41:37.385Z,99172.81
2019-05-20T10:44:05.963Z,99175.43
2019-05-20T10:46:34.596Z,99168.73
2019-05-20T10:49:03.133Z,99176.08
2019-05-20T10:51:31.546Z,99181.52
2019-05-20T10:54:00.010Z,99186.88
2019-05-20T10:56:28.435Z,99187.56
2019-05-20T10:58:56.875Z,99191.91
2019-05-20T11:01:25.491Z,99208.31
2019-05-20T11:03:53.925Z,99210.87
2019-05-20T11:06:22.406Z,99208.58
2019-05-20T11:08:50.848Z,99211.38
2019-05-20T11:11:19.283Z,99214.20
2019-05-20T11:13:47.726Z,99217.61
2019-05-20T11:16:16.365Z,99226.14
2019-05-20T11:18:44.802Z,99224.06
2019-05-20T11:21:13.306Z,99234.94
2019-05-20T11:23:41.866Z,99232.41
2019-05-20T11:26:11.117Z,99229.83
2019-05-20T11:28:39.556Z,99237.30
2019-05-20T11:31:08.201Z,99234.82
2019-05-20T11:33:36.631Z,99228.12
2019-05-20T11:36:05.167Z,99237.51
2019-05-20T11:38:33.740Z,99239.81
2019-05-20T11:41:02.172Z,99237.97
2019-05-20T11:43:30.604Z,99244.67
2019-05-20T11:45:59.060Z,99241.69
2019-05-20T11:48:27.728Z,99242.18
2019-05-20T11:50:56.162Z,99253.47
2019-05-20T11:53:24.717Z,99249.84
2019-05-20T11:55:53.170Z,99247.86
2019-05-20T11:58:21.714Z,99240.80
2019-05-20T12:00:50.207Z,99241.63
2019-05-20T12:03:18.706Z,99246.30
2019-05-20T12:05:47.180Z,99241.36
2019-05-20T12:08:15.704Z,99233.88
2019-05-20T12:10:44.864Z,99237.70
2019-05-20T12:13:13.296Z,99232.04
2019-05-20T12:15:41.841Z,99239.94
2019-05-20T12:18:10.278Z,99236.73
2019-05-20T12:20:38.708Z,99242.55
2019-05-20T12:23:07.175Z,99232.89
2019-05-20T12:25:35.605Z,99236.25
2019-05-20T12:28:04.118Z,99238.00
2019-05-20T12:30:32.778Z,99240.05
2019-05-20T12:33:18.006Z,99236.55
2019-05-20T12:35:31.511Z,99238.04
2019-05-20T12:38:00.109Z,99236.64
2019-05-20T12:40:28.540Z,99236.16
2019-05-20T12:42:56.978Z,99241.46
2019-05-20T12:45:25.529Z,99240.13
2019-05-20T12:47:54.275Z,99239.83
2019-05-20T12:50:24.211Z,99244.41
2019-05-20T12:52:52.774Z,99246.94
2019-05-20T12:55:21.377Z,99249.96
2019-05-20T12:57:49.810Z,99250.45
2019-05-20T13:00:19.018Z,99244.75
2019-05-20T13:02:47.454Z,99238.04
2019-05-20T13:05:16.018Z,99240.90
2019-05-20T13:07:44.751Z,99243.70
2019-05-20T13:10:32.103Z,99248.70
2019-05-20T13:12:43.881Z,99241.34
2019-05-20T13:15:12.871Z,99242.31
2019-05-20T13:17:44.703Z,99240.90
2019-05-20T13:20:12.276Z,99238.70
2019-05-20T13:22:40.799Z,99235.61
2019-05-20T13:25:09.772Z,99241.11
2019-05-20T13:27:38.194Z,99232.45
2019-05-20T13:30:11.694Z,99242.38
2019-05-20T13:32:40.123Z,99242.95
2019-05-20T13:35:08.993Z,99235.61
2019-05-20T13:37:38.135Z,99231.21
2019-05-20T13:40:07.604Z,99224.13
2019-05-20T13:42:36.313Z,99216.30
2019-05-20T13:45:08.201Z,99213.24
2019-05-20T13:47:36.789Z,99206.31
2019-05-20T13:50:09.772Z,99204.78
2019-05-20T13:52:38.391Z,99209.39
2019-05-20T13:55:07.466Z,99212.60
2019-05-20T13:57:35.964Z,99204.70
2019-05-20T14:00:06.138Z,99210.67
2019-05-20T14:02:34.717Z,99204.41
2019-05-20T14:05:03.578Z,99210.86
2019-05-20T14:07:32.200Z,99212.24
2019-05-20T14:10:00.634Z,99208.86
2019-05-20T14:12:29.146Z,99204.88
2019-05-20T14:14:57.670Z,99207.52
2019-05-20T14:17:26.135Z,99209.98
2019-05-20T14:19:54.647Z,99214.47
2019-05-20T14:22:23.119Z,99209.22
2019-05-20T14:24:51.625Z,99211.55
2019-05-20T14:27:20.126Z,99214.22
2019-05-20T14:29:48.586Z,99213.30
2019-05-20T14:32:17.119Z,99225.03
2019-05-20T14:34:45.535Z,99221.67
2019-05-20T14:37:14.078Z,99228.64
2019-05-20T14:39:42.538Z,99228.47
2019-05-20T14:42:11.088Z,99232.52
2019-05-20T14:44:39.830Z,99233.18
2019-05-20T14:47:08.266Z,99230.25
2019-05-20T14:49:36.697Z,99238.55
2019-05-20T14:52:06.046Z,99240.85
2019-05-20T14:54:34.554Z,99235.23
2019-05-20T14:57:02.995Z,99242.03
2019-05-20T14:59:31.441Z,99233.41
2019-05-20T15:01:59.972Z,99239.00
2019-05-20T15:04:28.472Z,99233.26
2019-05-20T15:06:57.077Z,99238.41
2019-05-20T15:09:25.565Z,99239.22
2019-05-20T15:11:53.950Z,99237.06
2019-05-20T15:14:22.413Z,99237.69
2019-05-20T15:16:50.918Z,99239.25
2019-05-20T15:19:19.420Z,99241.30
2019-05-20T15:21:47.972Z,99243.77
2019-05-20T15:24:16.418Z,99247.09
2019-05-20T15:26:44.951Z,99246.50
2019-05-20T15:29:27.056Z,99244.11
2019-05-20T15:31:43.711Z,99245.64
2019-05-20T15:34:12.192Z,99250.00
2019-05-20T15:36:40.729Z,99253.66
2019-05-20T15:39:09.172Z,99250.36
2019-05-20T15:41:37.608Z,99239.60
2019-05-20T15:44:06.149Z,99230.58
2019-05-20T15:46:34.652Z,99237.30
2019-05-20T15:49:03.083Z,99222.80
2019-05-20T15:51:31.740Z,99231.81
2019-05-20T15:54:00.245Z,99226.00
2019-05-20T15:56:28.759Z,99214.16
2019-05-20T15:58:57.243Z,99210.72
2019-05-20T16:01:25.696Z,99208.37
2019-05-20T16:03:54.114Z,99208.75
2019-05-20T16:06:22.583Z,99209.31
2019-05-20T16:08:51.029Z,99205.77
2019-05-20T16:11:19.462Z,99199.09
2019-05-20T16:13:47.921Z,99202.93
2019-05-20T16:16:16.366Z,99200.22
2019-05-20T16:18:44.804Z,99208.30
2019-05-20T16:21:13.405Z,99210.69
2019-05-20T16:23:41.907Z,99201.78
2019-05-20T16:26:10.375Z,99206.55
2019-05-20T16:28:38.899Z,99206.63
2019-05-20T16:31:07.439Z,99203.31
2019-05-20T16:33:35.846Z,99207.30
2019-05-20T16:36:04.442Z,99211.55
2019-05-20T16:38:32.876Z,99213.47
2019-05-20T16:41:01.311Z,99214.52
2019-05-20T16:43:29.777Z,99217.32
2019-05-20T16:45:58.283Z,99224.95
2019-05-20T16:48:26.717Z,99233.08
2019-05-20T16:50:55.362Z,99251.02
2019-05-20T16:53:23.950Z,99245.70
2019-05-20T16:55:52.454Z,99247.05
2019-05-20T16:58:21.090Z,99254.13
2019-05-20T17:00:49.522Z,99246.06
2019-05-20T17:03:18.021Z,99255.05
2019-05-20T17:05:46.673Z,99262.18
2019-05-20T17:08:15.106Z,99264.19
2019-05-20T17:10:43.573Z,99263.84
2019-05-20T17:13:12.049Z,99269.97
2019-05-20T17:15:40.487Z,99273.45
2019-05-20T17:18:08.954Z,99268.94
2019-05-20T17:20:37.443Z,99265.38
2019-05-20T17:23:05.948Z,99268.32
2019-05-20T17:25:34.401Z,99269.02
2019-05-20T17:28:03.083Z,99264.78
2019-05-20T17:30:44.353Z,99260.46
2019-05-20T17:33:01.872Z,99263.01
2019-05-20T17:35:30.329Z,99265.91
2019-05-20T17:37:58.859Z,99276.52
2019-05-20T17:40:27.419Z,99273.73
2019-05-20T17:42:56.014Z,99273.41
2019-05-20T17:45:24.613Z,99273.58
2019-05-20T17:47:53.113Z,99276.22
2019-05-20T17:50:21.971Z,99278.38
2019-05-20T17:52:50.400Z,99283.45
2019-05-20T17:55:18.912Z,99288.77
2019-05-20T17:57:47.527Z,99289.66
2019-05-20T18:00:17.970Z,99283.45
2019-05-20T18:02:46.386Z,99289.09
2019-05-20T18:05:15.176Z,99277.14
2019-05-20T18:07:43.678Z,99294.70
2019-05-20T18:10:12.823Z,99290.92
2019-05-20T18:12:41.477Z,99284.52
2019-05-20T18:15:10.549Z,99291.45
2019-05-20T18:17:39.050Z,99280.62
2019-05-20T18:20:08.047Z,99288.56
2019-05-20T18:22:36.570Z,99287.58
2019-05-20T18:25:07.013Z,99292.63
2019-05-20T18:27:35.643Z,99284.80
2019-05-20T18:30:06.114Z,99282.80
2019-05-20T18:32:34.685Z,99280.36
2019-05-20T18:35:03.524Z,99286.45
2019-05-20T18:37:32.107Z,99285.34
2019-05-20T18:40:13.403Z,99280.69
2019-05-20T18:42:30.820Z,99281.02
2019-05-20T18:44:59.267Z,99291.72
2019-05-20T18:47:28.009Z,99287.64
2019-05-20T18:49:56.854Z,99283.64
2019-05-20T18:52:25.306Z,99286.13
2019-05-20T18:54:53.821Z,99287.13
2019-05-20T18:57:22.478Z,99291.64
2019-05-20T18:59:51.028Z,99294.63
2019-05-20T19:02:19.539Z,99296.25
2019-05-20T19:04:48.024Z,99293.01
2019-05-20T19:07:16.567Z,99308.36
2019-05-20T19:09:45.454Z,99308.40
2019-05-20T19:12:14.064Z,99316.19
2019-05-20T19:14:42.685Z,99320.63
2019-05-20T19:17:11.333Z,99314.73
2019-05-20T19:19:39.917Z,99315.70
2019-05-20T19:22:08.477Z,99313.45
2019-05-20T19:24:36.918Z,99311.47
2019-05-20T19:27:05.952Z,99310.02
2019-05-20T19:29:34.538Z,99311.95
2019-05-20T19:32:03.257Z,99309.27
2019-05-20T19:34:31.810Z,99319.67
2019-05-20T19:37:00.318Z,99308.95
2019-05-20T19:39:28.900Z,99306.32
2019-05-20T19:41:57.448Z,99308.84
2019-05-20T19:44:26.038Z,99314.36
2019-05-20T19:46:54.588Z,99310.98
2019-05-20T19:49:23.037Z,99311.40
2019-05-20T19:51:51.518Z,99306.95
2019-05-20T19:54:19.964Z,99314.90
2019-05-20T19:56:48.661Z,99313.98
2019-05-20T19:59:17.104Z,99309.48
2019-05-20T20:01:45.718Z,99306.52
2019-05-20T20:04:14.241Z,99305.47
2019-05-20T20:06:42.671Z,99299.26
2019-05-20T20:09:11.104Z,99304.23
2019-05-20T20:11:39.644Z,99305.67
2019-05-20T20:14:08.084Z,99310.81
2019-05-20T20:16:36.554Z,99314.50
2019-05-20T20:19:05.200Z,99321.44
2019-05-20T20:21:33.632Z,99326.66
2019-05-20T20:24:02.105Z,99330.16
2019-05-20T20:26:30.564Z,99334.28
2019-05-20T20:28:58.993Z,99333.80
2019-05-20T20:31:27.531Z,99332.39
2019-05-20T20:33:56.106Z,99340.13
2019-05-20T20:36:24.537Z,99339.16
2019-05-20T20:38:53.113Z,99346.34
2019-05-20T20:41:21.888Z,99341.47
2019-05-20T20:43:50.390Z,99338.27
2019-05-20T20:46:18.818Z,99344.31
2019-05-20T20:48:47.355Z,99349.47
2019-05-20T20:51:15.799Z,99356.09
2019-05-20T20:53:44.238Z,99362.52
2019-05-20T20:56:24.923Z,99370.72
2019-05-20T20:58:42.990Z,99362.79
2019-05-20T21:01:11.421Z,99366.74
2019-05-20T21:03:39.996Z,99367.67
2019-05-20T21:06:08.518Z,99375.62
2019-05-20T21:08:36.949Z,99372.66
2019-05-20T21:11:05.481Z,99373.34
2019-05-20T21:13:33.914Z,99369.70
2019-05-20T21:16:02.412Z,99362.50
2019-05-20T21:18:30.873Z,99361.47
2019-05-20T21:20:59.309Z,99359.07
2019-05-20T21:23:27.759Z,99368.27
2019-05-20T21:25:56.294Z,99364.25
2019-05-20T21:28:24.799Z,99366.16
2019-05-20T21:30:53.229Z,99374.20
2019-05-20T21:33:21.876Z,99377.05
2019-05-20T21:35:50.311Z,99380.20
2019-05-20T21:38:18.819Z,99376.98
2019-05-20T21:40:47.325Z,99376.48
2019-05-20T21:43:15.764Z,99373.24
2019-05-20T21:45:44.198Z,99377.64
2019-05-20T21:48:12.661Z,99380.70
2019-05-20T21:50:41.161Z,99377.63
2019-05-20T21:53:09.661Z,99380.22
2019-05-20T21:55:38.210Z,99385.86
2019-05-20T21:58:06.651Z,99390.73
2019-05-20T22:00:37.200Z,99389.20
2019-05-20T22:03:05.722Z,99397.41
2019-05-20T22:05:34.231Z,99396.09
2019-05-20T22:08:04.212Z,99390.73
2019-05-20T22:10:32.804Z,99389.01
2019-05-20T22:13:01.233Z,99386.03
2019-05-20T22:15:29.665Z,99388.44
2019-05-20T22:17:58.131Z,99379.56
2019-05-20T22:20:26.662Z,99382.88
2019-05-20T22:23:12.866Z,99389.67
2019-05-20T22:25:41.388Z,99386.14
2019-05-20T22:28:12.772Z,99391.77
2019-05-20T22:30:40.005Z,99385.98
2019-05-20T22:33:08.443Z,99384.91
2019-05-20T22:35:37.726Z,99388.53
2019-05-20T22:38:06.311Z,99386.05
2019-05-20T22:40:34.810Z,99386.62
2019-05-20T22:43:03.258Z,99383.66
2019-05-20T22:45:33.064Z,99384.16
2019-05-20T22:48:01.644Z,99381.00
2019-05-20T22:50:30.077Z,99383.46
2019-05-20T22:52:58.706Z,99386.72
2019-05-20T22:55:27.216Z,99378.98
2019-05-20T22:57:55.642Z,99380.60
2019-05-20T23:00:24.185Z,99378.59
2019-05-20T23:02:52.696Z,99373.98
2019-05-20T23:05:21.150Z,99376.30
2019-05-20T23:07:49.677Z,99371.81
2019-05-20T23:10:18.454Z,99371.99
2019-05-20T23:12:46.892Z,99366.05
2019-05-20T23:15:15.501Z,99364.60
2019-05-20T23:17:44.012Z,99369.88
2019-05-20T23:20:12.792Z,99370.94
2019-05-20T23:22:41.250Z,99369.78
2019-05-20T23:25:09.796Z,99378.78
2019-05-20T23:27:38.368Z,99376.58
2019-05-20T23:30:10.560Z,99378.01
2019-05-20T23:32:39.025Z,99374.20
2019-05-20T23:35:07.803Z,99376.66
2019-05-20T23:37:37.781Z,99375.62
2019-05-20T23:40:07.186Z,99373.12
2019-05-20T23:42:35.619Z,99376.09
2019-05-20T23:45:06.620Z,99375.05
2019-05-20T23:47:35.066Z,99377.73
2019-05-20T23:50:03.833Z,99377.36
2019-05-20T23:52:32.299Z,99374.58
2019-05-20T23:55:00.729Z,99380.04
2019-05-20T23:57:29.229Z,99385.02
2019-05-20T23:59:57.759Z,99379.73
